This is the latest recevied weather packets stored in our database for station/object IV3CGM-13. If no packets are shown the sender has not sent any weather packets the latest 10 day(s).
| Time | Temp. | Humidity | Pressure | Rain* | Wind** | Luminosity | Snow |
|---|---|---|---|---|---|---|---|
| 1777549584 | 15.56° C | 44% | 1023.8 hPa | 0 mm | - | 764 W/m² | - |
| 1777548896 | 15° C | 47% | 1023.8 hPa | 0 mm | - | 816 W/m² | - |
| 1777548208 | 15° C | 46% | 1023.9 hPa | 0 mm | - | 808 W/m² | - |
| 1777547521 | 14.44° C | 47% | 1024 hPa | 0 mm | - | 836 W/m² | - |
| 1777546785 | 15° C | 46% | 1024.1 hPa | 0 mm | - | 838 W/m² | - |
| 1777546084 | 13.89° C | 48% | 1024.1 hPa | 0 mm | - | 843 W/m² | - |
| 1777545396 | 13.89° C | 50% | 1024.2 hPa | 0 mm | - | 838 W/m² | - |
| 1777544708 | 13.89° C | 50% | 1024.2 hPa | 0 mm | - | 824 W/m² | - |
| 1777544021 | 13.33° C | 56% | 1024.3 hPa | 0 mm | - | 816 W/m² | - |
| 1777543286 | 12.78° C | 54% | 1024.4 hPa | 0 mm | - | 797 W/m² | - |
| 1777542584 | 13.33° C | 54% | 1024.3 hPa | 0 mm | - | 775 W/m² | - |
| 1777541896 | 12.78° C | 53% | 1024.4 hPa | 0 mm | - | 757 W/m² | - |
| 1777541208 | 12.22° C | 57% | 1024.5 hPa | 0 mm | - | 740 W/m² | - |
| 1777540521 | 12.78° C | 53% | 1024.5 hPa | 0 mm | - | 717 W/m² | - |
| 1777539784 | 12.78° C | 55% | 1024.6 hPa | 0 mm | - | 699 W/m² | - |
| 1777539083 | 12.22° C | 53% | 1024.5 hPa | 0 mm | - | 687 W/m² | - |
| 1777538396 | 11.67° C | 54% | 1024.5 hPa | 0 mm | - | 665 W/m² | - |
| 1777537707 | 12.22° C | 54% | 1024.5 hPa | 0 mm | - | 642 W/m² | - |
| 1777537020 | 11.11° C | 58% | 1024.4 hPa | 0 mm | - | 613 W/m² | - |
| 1777536283 | 11.11° C | 58% | 1024.3 hPa | 0 mm | - | 581 W/m² | - |
| 1777535582 | 11.11° C | 57% | 1024.1 hPa | 0 mm | - | 540 W/m² | - |
| 1777534895 | 11.11° C | 58% | 1024.1 hPa | 0 mm | - | 507 W/m² | - |
| 1777534203 | 11.11° C | 58% | 1024 hPa | 0 mm | - | 325 W/m² | - |
| 1777532720 | 10.56° C | 62% | 1024 hPa | 0 mm | - | 385 W/m² | - |
| 1777532019 | 10.56° C | 61% | 1023.9 hPa | 0 mm | - | 349 W/m² | - |
* Rain latest hour (hover to see other rain measurements)
** Current wind speed in m/s (hover to see current wind gust speed)